createdAt,value
2019-01-19T14:19:00.147Z,1011.64
2019-01-19T14:20:00.211Z,1011.62
2019-01-19T14:21:00.227Z,1011.58
2019-01-19T14:22:00.280Z,1011.59
2019-01-19T14:23:00.332Z,1011.60
2019-01-19T14:24:00.392Z,1011.57
2019-01-19T14:25:00.450Z,1011.56
2019-01-19T14:26:01.252Z,1011.58
2019-01-19T14:27:00.562Z,1011.57
2019-01-19T14:28:00.608Z,1011.59
2019-01-19T14:29:00.672Z,1011.58
2019-01-19T14:30:00.728Z,1011.55
2019-01-19T14:31:00.780Z,1011.53
2019-01-19T14:32:00.840Z,1011.54
2019-01-19T14:33:00.894Z,1011.55
2019-01-19T14:34:00.956Z,1011.53
2019-01-19T14:35:01.017Z,1011.54
2019-01-19T14:36:01.064Z,1011.49
2019-01-19T14:37:01.124Z,1011.53
2019-01-19T14:38:01.180Z,1011.52
2019-01-19T14:39:01.281Z,1011.52
2019-01-19T14:40:01.303Z,1011.48
2019-01-19T14:41:01.356Z,1011.47
2019-01-19T14:42:01.418Z,1011.47
2019-01-19T14:43:01.477Z,1011.41
2019-01-19T14:44:01.545Z,1011.43
2019-01-19T14:45:01.601Z,1011.39
2019-01-19T14:46:01.653Z,1011.40
2019-01-19T14:47:01.713Z,1011.35
2019-01-19T14:48:01.775Z,1011.38
2019-01-19T14:49:01.844Z,1011.35
2019-01-19T14:50:01.897Z,1011.34
2019-01-19T14:51:01.949Z,1011.29
2019-01-19T14:52:02.012Z,1011.35
2019-01-19T14:53:02.070Z,1011.33
2019-01-19T14:54:02.130Z,1011.31
2019-01-19T14:55:02.334Z,1011.29
2019-01-19T14:56:02.246Z,1011.33
2019-01-19T14:57:02.308Z,1011.34
2019-01-19T14:58:02.366Z,1011.28
2019-01-19T14:59:02.490Z,1011.28
2019-01-19T15:00:02.497Z,1011.25
2019-01-19T15:01:02.586Z,1011.30
2019-01-19T15:02:02.658Z,1011.21
2019-01-19T15:03:02.762Z,1011.26
2019-01-19T15:04:02.726Z,1011.25
2019-01-19T15:05:02.790Z,1011.26
2019-01-19T15:06:03.014Z,1011.22
2019-01-19T15:07:02.902Z,1011.27
2019-01-19T15:08:02.962Z,1011.22
2019-01-19T15:09:03.943Z,1011.26
2019-01-19T15:10:03.178Z,1011.28
2019-01-19T15:11:03.152Z,1011.30
2019-01-19T15:12:03.202Z,1011.25
2019-01-19T15:13:03.267Z,1011.25
2019-01-19T15:14:03.322Z,1011.23
2019-01-19T15:15:03.390Z,1011.23
2019-01-19T15:16:03.446Z,1011.26
2019-01-19T15:17:03.498Z,1011.23
2019-01-19T15:18:03.560Z,1011.25
2019-01-19T15:19:03.618Z,1011.24
2019-01-19T15:20:03.683Z,1011.26
2019-01-19T15:21:03.746Z,1011.25
2019-01-19T15:22:03.795Z,1011.26
2019-01-19T15:23:03.855Z,1011.23
2019-01-19T15:24:03.916Z,1011.25
2019-01-19T15:25:03.991Z,1011.24
2019-01-19T15:26:04.049Z,1011.24
2019-01-19T15:27:04.091Z,1011.23
2019-01-19T15:28:04.150Z,1011.25
2019-01-19T15:29:04.211Z,1011.26
2019-01-19T15:30:04.287Z,1011.21
2019-01-19T15:31:04.351Z,1011.21
2019-01-19T15:32:04.391Z,1011.21
2019-01-19T15:33:04.451Z,1011.18
2019-01-19T15:34:04.507Z,1011.15
2019-01-19T15:35:04.575Z,1011.17
2019-01-19T15:36:04.635Z,1011.13
2019-01-19T15:37:04.688Z,1011.17
2019-01-19T15:38:04.744Z,1011.15
2019-01-19T15:39:10.751Z,1011.13
2019-01-19T15:40:04.872Z,1011.14
2019-01-19T15:41:04.932Z,1011.12
2019-01-19T15:42:04.982Z,1011.13
2019-01-19T15:43:05.040Z,1011.09
2019-01-19T15:44:05.100Z,1011.12
2019-01-19T15:45:05.252Z,1011.13
2019-01-19T15:46:05.220Z,1011.12
2019-01-19T15:47:05.640Z,1011.10
2019-01-19T15:48:05.336Z,1011.11
2019-01-19T15:49:05.397Z,1011.07
2019-01-19T15:50:05.460Z,1011.10
2019-01-19T15:51:05.524Z,1011.11
2019-01-19T15:52:05.579Z,1011.09
2019-01-19T15:53:05.632Z,1011.11
2019-01-19T15:54:05.689Z,1011.13
2019-01-19T15:55:05.756Z,1011.14
2019-01-19T15:56:05.816Z,1011.09
2019-01-19T15:57:05.872Z,1011.09
2019-01-19T15:58:05.926Z,1011.08
2019-01-19T15:59:05.998Z,1011.10
2019-01-19T16:00:06.045Z,1011.11
2019-01-19T16:01:06.197Z,1011.14
2019-01-19T16:02:06.169Z,1011.15
2019-01-19T16:03:06.220Z,1011.15
2019-01-19T16:04:06.289Z,1011.14
2019-01-19T16:05:06.341Z,1011.10
2019-01-19T16:06:06.405Z,1011.14
2019-01-19T16:07:06.461Z,1011.13
2019-01-19T16:08:06.513Z,1011.10
2019-01-19T16:09:06.575Z,1011.10
2019-01-19T16:10:06.629Z,1011.07
2019-01-19T16:11:06.697Z,1011.10
2019-01-19T16:12:06.797Z,1011.08
2019-01-19T16:13:06.805Z,1011.09
2019-01-19T16:14:06.870Z,1011.07
2019-01-19T16:15:06.922Z,1011.03
2019-01-19T16:16:06.990Z,1011.06
2019-01-19T16:17:07.054Z,1011.01
2019-01-19T16:18:07.099Z,1011.03
2019-01-19T16:19:07.158Z,1011.05
2019-01-19T16:20:07.218Z,1011.03
2019-01-19T16:21:07.274Z,1011.02
2019-01-19T16:22:07.354Z,1011.04
2019-01-19T16:23:07.390Z,1011.05
2019-01-19T16:24:07.450Z,1011.00
2019-01-19T16:25:07.506Z,1011.01
2019-01-19T16:26:07.563Z,1011.03
2019-01-19T16:27:07.635Z,1011.04
2019-01-19T16:28:07.692Z,1010.96
2019-01-19T16:29:07.738Z,1010.97
2019-01-19T16:30:07.799Z,1010.95
2019-01-19T16:31:07.858Z,1011.01
2019-01-19T16:32:08.325Z,1010.94
2019-01-19T16:33:07.979Z,1010.96
2019-01-19T16:34:08.030Z,1010.93
2019-01-19T16:35:08.088Z,1010.97
2019-01-19T16:36:08.151Z,1010.98
2019-01-19T16:37:08.299Z,1010.95
2019-01-19T16:38:08.259Z,1010.96
2019-01-19T16:39:08.324Z,1010.98
2019-01-19T16:40:08.379Z,1010.95
2019-01-19T16:41:08.435Z,1010.98
2019-01-19T16:42:08.499Z,1010.95
2019-01-19T16:43:08.559Z,1010.94
2019-01-19T16:44:08.615Z,1010.99
2019-01-19T16:45:08.667Z,1010.94
2019-01-19T16:46:08.726Z,1010.96
2019-01-19T16:47:08.792Z,1010.98
2019-01-19T16:48:08.847Z,1010.96
2019-01-19T16:49:08.899Z,1010.96
2019-01-19T16:50:08.959Z,1010.96
2019-01-19T16:51:09.013Z,1010.93
2019-01-19T16:52:09.088Z,1010.93
2019-01-19T16:53:09.130Z,1010.91
2019-01-19T16:54:09.188Z,1010.97
2019-01-19T16:55:09.246Z,1010.94
2019-01-19T16:56:09.306Z,1010.94
2019-01-19T16:57:09.368Z,1010.95
2019-01-19T16:58:09.428Z,1010.94
2019-01-19T16:59:09.476Z,1010.91
2019-01-19T17:00:09.532Z,1010.92
2019-01-19T17:01:09.592Z,1010.94
2019-01-19T17:02:09.656Z,1010.89
2019-01-19T17:03:09.712Z,1010.89
2019-01-19T17:04:09.764Z,1010.92
2019-01-19T17:05:09.824Z,1010.90
2019-01-19T17:06:09.888Z,1010.93
2019-01-19T17:07:09.948Z,1010.89
2019-01-19T17:08:10.000Z,1010.89
2019-01-19T17:09:10.049Z,1010.94
2019-01-19T17:10:10.111Z,1010.87
2019-01-19T17:11:10.173Z,1010.89
2019-01-19T17:12:10.257Z,1010.87
2019-01-19T17:13:10.509Z,1010.90
2019-01-19T17:14:10.341Z,1010.87
2019-01-19T17:15:10.397Z,1010.90
2019-01-19T17:16:10.457Z,1010.91
2019-01-19T17:17:10.521Z,1010.93
2019-01-19T17:18:10.577Z,1010.89
2019-01-19T17:19:10.629Z,1010.87
2019-01-19T17:20:10.685Z,1010.86
2019-01-19T17:21:10.741Z,1010.89
2019-01-19T17:22:10.809Z,1010.85
2019-01-19T17:23:10.869Z,1010.86
2019-01-19T17:24:10.915Z,1010.86
2019-01-19T17:25:10.977Z,1010.85
2019-01-19T17:26:11.032Z,1010.83
2019-01-19T17:27:11.213Z,1010.81
2019-01-19T17:28:11.145Z,1010.80
2019-01-19T17:29:11.202Z,1010.84
2019-01-19T17:30:11.255Z,1010.84
2019-01-19T17:31:11.318Z,1010.80
2019-01-19T17:32:11.382Z,1010.78
2019-01-19T17:33:11.438Z,1010.80
2019-01-19T17:34:11.490Z,1010.79
2019-01-19T17:35:11.574Z,1010.78
2019-01-19T17:36:11.607Z,1010.78
2019-01-19T17:37:11.670Z,1010.80
2019-01-19T17:38:11.726Z,1010.78
2019-01-19T17:39:11.778Z,1010.77
2019-01-19T17:40:11.834Z,1010.82
2019-01-19T17:41:11.902Z,1010.79
2019-01-19T17:42:11.954Z,1010.75
2019-01-19T17:43:12.010Z,1010.76
2019-01-19T17:44:12.066Z,1010.79
2019-01-19T17:45:12.119Z,1010.76
2019-01-19T17:46:12.174Z,1010.80
2019-01-19T17:47:12.331Z,1010.79
2019-01-19T17:48:12.294Z,1010.76
2019-01-19T17:49:12.350Z,1010.76
2019-01-19T17:50:12.403Z,1010.76
2019-01-19T17:51:12.471Z,1010.72
2019-01-19T17:52:12.527Z,1010.75
2019-01-19T17:53:12.583Z,1010.76
2019-01-19T17:54:12.631Z,1010.77
2019-01-19T17:55:12.717Z,1010.76
2019-01-19T17:56:12.747Z,1010.78
2019-01-19T17:57:12.811Z,1010.75
2019-01-19T17:58:12.866Z,1010.77
2019-01-19T17:59:12.921Z,1010.79
2019-01-19T18:00:12.975Z,1010.79
2019-01-19T18:01:13.031Z,1010.81
2019-01-19T18:02:13.191Z,1010.79
2019-01-19T18:03:13.147Z,1010.80
2019-01-19T18:04:13.205Z,1010.81
2019-01-19T18:05:13.259Z,1010.82
2019-01-19T18:06:13.315Z,1010.84
2019-01-19T18:07:13.384Z,1010.80
2019-01-19T18:08:13.439Z,1010.85
2019-01-19T18:09:13.490Z,1010.86
2019-01-19T18:10:13.544Z,1010.88
2019-01-19T18:11:13.600Z,1010.86
2019-01-19T18:12:13.670Z,1010.84
2019-01-19T18:13:13.723Z,1010.84
2019-01-19T18:14:13.772Z,1010.83
2019-01-19T18:15:13.828Z,1010.89
2019-01-19T18:16:13.888Z,1010.87
2019-01-19T18:17:13.952Z,1010.88
2019-01-19T18:18:14.008Z,1010.86
2019-01-19T18:19:14.056Z,1010.88
2019-01-19T18:20:14.112Z,1010.88
2019-01-19T18:21:14.172Z,1010.89
2019-01-19T18:22:14.336Z,1010.90
2019-01-19T18:23:14.284Z,1010.90
2019-01-19T18:24:14.346Z,1010.88
2019-01-19T18:25:14.400Z,1010.90
2019-01-19T18:26:14.456Z,1010.88
2019-01-19T18:27:14.520Z,1010.88
2019-01-19T18:28:14.577Z,1010.87
2019-01-19T18:29:14.625Z,1010.94
2019-01-19T18:30:14.681Z,1010.89
2019-01-19T18:31:14.741Z,1010.91
2019-01-19T18:32:14.805Z,1010.89
2019-01-19T18:33:14.869Z,1010.87
2019-01-19T18:34:14.911Z,1010.87
2019-01-19T18:35:14.966Z,1010.82
2019-01-19T18:36:15.025Z,1010.90
2019-01-19T18:37:15.153Z,1010.90
2019-01-19T18:38:15.138Z,1010.87
2019-01-19T18:39:15.193Z,1010.89
2019-01-19T18:40:15.250Z,1010.90
2019-01-19T18:41:15.305Z,1010.92
2019-01-19T18:42:15.461Z,1010.88
2019-01-19T18:43:15.436Z,1010.86
2019-01-19T18:44:15.478Z,1010.88
2019-01-19T18:45:15.565Z,1010.88
2019-01-19T18:46:15.600Z,1010.86
2019-01-19T18:47:15.669Z,1010.90
2019-01-19T18:48:15.729Z,1010.86
2019-01-19T18:49:15.766Z,1010.88
2019-01-19T18:50:15.826Z,1010.88
2019-01-19T18:51:15.876Z,1010.86
2019-01-19T18:52:15.939Z,1010.83
2019-01-19T18:53:16.032Z,1010.85
2019-01-19T18:54:16.055Z,1010.85
2019-01-19T18:55:16.099Z,1010.83
2019-01-19T18:56:16.154Z,1010.84
2019-01-19T18:57:16.286Z,1010.78
2019-01-19T18:58:16.270Z,1010.80
2019-01-19T18:59:16.326Z,1010.80
2019-01-19T19:00:16.385Z,1010.79
2019-01-19T19:01:16.443Z,1010.82
2019-01-19T19:02:16.502Z,1010.80
2019-01-19T19:03:16.559Z,1010.84
2019-01-19T19:04:16.606Z,1010.82
2019-01-19T19:05:16.663Z,1010.78
2019-01-19T19:06:16.719Z,1010.79
2019-01-19T19:07:16.782Z,1010.78
2019-01-19T19:08:16.839Z,1010.82
2019-01-19T19:09:16.891Z,1010.81
2019-01-19T19:10:16.951Z,1010.78
2019-01-19T19:11:17.003Z,1010.83
2019-01-19T19:12:17.067Z,1010.81
2019-01-19T19:13:17.124Z,1010.76
2019-01-19T19:14:17.175Z,1010.74
2019-01-19T19:15:17.227Z,1010.75
2019-01-19T19:16:17.284Z,1010.76
2019-01-19T19:17:17.347Z,1010.77
2019-01-19T19:18:17.404Z,1010.78
2019-01-19T19:19:17.451Z,1010.77
2019-01-19T19:20:17.507Z,1010.81
2019-01-19T19:21:17.564Z,1010.78
2019-01-19T19:22:17.632Z,1010.77
2019-01-19T19:23:17.684Z,1010.77
2019-01-19T19:24:17.732Z,1010.80
2019-01-19T19:25:17.792Z,1010.79
2019-01-19T19:26:17.844Z,1010.81
2019-01-19T19:27:17.908Z,1010.82
2019-01-19T19:28:17.967Z,1010.80
2019-01-19T19:29:18.016Z,1010.83
2019-01-19T19:30:18.073Z,1010.85
2019-01-19T19:31:18.129Z,1010.80
2019-01-19T19:32:18.215Z,1010.84
2019-01-19T19:33:18.240Z,1010.80
2019-01-19T19:34:18.298Z,1010.82
2019-01-19T19:35:18.357Z,1010.79
2019-01-19T19:36:18.408Z,1010.79
2019-01-19T19:37:18.476Z,1010.78
2019-01-19T19:38:18.529Z,1010.74
2019-01-19T19:39:18.577Z,1010.76
2019-01-19T19:40:18.634Z,1010.80
2019-01-19T19:41:18.688Z,1010.79
2019-01-19T19:42:18.753Z,1010.82
2019-01-19T19:43:18.813Z,1010.82
2019-01-19T19:44:18.857Z,1010.77
2019-01-19T19:45:18.915Z,1010.76
2019-01-19T19:46:18.969Z,1010.80
2019-01-19T19:47:19.033Z,1010.81
2019-01-19T19:48:19.090Z,1010.83
2019-01-19T19:49:19.143Z,1010.86
2019-01-19T19:50:19.193Z,1010.85
2019-01-19T19:51:19.249Z,1010.87
2019-01-19T19:52:19.313Z,1010.86
2019-01-19T19:53:19.373Z,1010.83
2019-01-19T19:54:19.423Z,1010.86
2019-01-19T19:55:19.476Z,1010.83
2019-01-19T19:56:19.529Z,1010.84
2019-01-19T19:57:19.594Z,1010.82
2019-01-19T19:58:19.650Z,1010.81
2019-01-19T19:59:19.698Z,1010.83
2019-01-19T20:00:19.754Z,1010.78
2019-01-19T20:01:19.814Z,1010.82
2019-01-19T20:02:19.874Z,1010.81
2019-01-19T20:03:19.939Z,1010.87
2019-01-19T20:04:19.978Z,1010.83
2019-01-19T20:05:20.038Z,1010.82
2019-01-19T20:06:20.114Z,1010.79
2019-01-19T20:07:20.234Z,1010.81
2019-01-19T20:08:20.206Z,1010.78
2019-01-19T20:09:20.262Z,1010.77
2019-01-19T20:10:20.315Z,1010.78
2019-01-19T20:11:20.374Z,1010.78
2019-01-19T20:12:20.438Z,1010.78
2019-01-19T20:13:20.494Z,1010.82
2019-01-19T20:14:20.543Z,1010.82
2019-01-19T20:15:20.599Z,1010.82
2019-01-19T20:16:20.654Z,1010.81
2019-01-19T20:17:20.718Z,1010.80
2019-01-19T20:18:20.780Z,1010.81
2019-01-19T20:19:20.823Z,1010.81
2019-01-19T20:20:20.878Z,1010.80
2019-01-19T20:21:20.935Z,1010.79
2019-01-19T20:22:20.995Z,1010.78
2019-01-19T20:23:21.051Z,1010.76
2019-01-19T20:24:21.103Z,1010.79
2019-01-19T20:25:21.159Z,1010.81
2019-01-19T20:26:21.211Z,1010.74
2019-01-19T20:27:21.362Z,1010.77
2019-01-19T20:28:21.327Z,1010.78
2019-01-19T20:29:21.387Z,1010.77
2019-01-19T20:30:21.435Z,1010.86
2019-01-19T20:31:21.495Z,1010.86
2019-01-19T20:32:21.555Z,1010.79
2019-01-19T20:33:21.617Z,1010.82
2019-01-19T20:34:21.659Z,1010.80
2019-01-19T20:35:21.715Z,1010.82
2019-01-19T20:36:21.776Z,1010.80
2019-01-19T20:37:21.836Z,1010.79
2019-01-19T20:38:21.892Z,1010.78
2019-01-19T20:39:21.940Z,1010.75
2019-01-19T20:40:24.545Z,1010.79
2019-01-19T20:41:22.052Z,1010.80
2019-01-19T20:42:22.204Z,1010.75
2019-01-19T20:43:22.165Z,1010.79
2019-01-19T20:44:22.220Z,1010.78
2019-01-19T20:45:22.276Z,1010.77
2019-01-19T20:46:22.328Z,1010.78
2019-01-19T20:47:22.392Z,1010.80
2019-01-19T20:48:22.448Z,1010.82
2019-01-19T20:49:22.500Z,1010.81
2019-01-19T20:50:22.553Z,1010.81
2019-01-19T20:51:22.608Z,1010.84
2019-01-19T20:52:22.805Z,1010.79
2019-01-19T20:53:22.728Z,1010.84
2019-01-19T20:54:22.780Z,1010.84
2019-01-19T20:55:22.833Z,1010.83
2019-01-19T20:56:22.888Z,1010.84
2019-01-19T20:57:22.953Z,1010.84
2019-01-19T20:58:23.009Z,1010.86
2019-01-19T20:59:23.057Z,1010.84
2019-01-19T21:00:23.113Z,1010.89
2019-01-19T21:01:23.169Z,1010.87
2019-01-19T21:02:23.277Z,1010.89
2019-01-19T21:03:23.277Z,1010.90
2019-01-19T21:04:23.343Z,1010.86
2019-01-19T21:05:23.389Z,1010.88
2019-01-19T21:06:23.446Z,1010.85
2019-01-19T21:07:23.613Z,1010.90
2019-01-19T21:08:23.569Z,1010.96
2019-01-19T21:09:23.613Z,1010.92
2019-01-19T21:10:23.670Z,1010.92
2019-01-19T21:11:23.725Z,1010.92
2019-01-19T21:12:23.825Z,1010.95
2019-01-19T21:13:23.845Z,1010.96
2019-01-19T21:14:23.894Z,1010.92
2019-01-19T21:15:23.950Z,1010.98
2019-01-19T21:16:24.006Z,1010.95
2019-01-19T21:17:24.066Z,1010.92
